createdAt,value
2023-04-05T00:02:22.364Z,100358.16
2023-04-05T00:04:54.890Z,100342.78
2023-04-05T00:07:26.488Z,100322.91
2023-04-05T00:09:55.833Z,100315.97
2023-04-05T00:12:27.574Z,100355.38
2023-04-05T00:15:01.107Z,100346.25
2023-04-05T00:17:31.610Z,100330.94
2023-04-05T00:20:01.978Z,100318.09
2023-04-05T00:22:34.137Z,100343.13
2023-04-05T00:25:05.690Z,100334.44
2023-04-05T00:27:34.878Z,100330.72
2023-04-05T00:30:10.036Z,100326.22
2023-04-05T00:32:39.770Z,100319.84
2023-04-05T00:35:10.472Z,100302.53
2023-04-05T00:37:39.718Z,100299.84
2023-04-05T00:40:10.605Z,100309.91
2023-04-05T00:42:39.752Z,100305.13
2023-04-05T00:45:11.370Z,100305.13
2023-04-05T00:47:43.102Z,100290.81
2023-04-05T00:50:16.822Z,100298.91
2023-04-05T00:52:46.663Z,100311.75
2023-04-05T00:55:15.961Z,100276.69
2023-04-05T00:57:50.117Z,100299.03
2023-04-05T01:00:23.044Z,100298.81
2023-04-05T01:03:01.870Z,100261.56
2023-04-05T01:05:39.679Z,100283.31
2023-04-05T01:08:19.792Z,100236.69
2023-04-05T01:10:56.536Z,100271.72
2023-04-05T01:13:27.422Z,100243.53
2023-04-05T01:16:00.837Z,100278.59
2023-04-05T01:18:31.226Z,100284.25
2023-04-05T01:21:34.080Z,100272.91
2023-04-05T01:24:15.397Z,100271.09
2023-04-05T01:27:03.061Z,100281.13
2023-04-05T01:29:54.971Z,100279.44
2023-04-05T01:32:47.934Z,100276.19
2023-04-05T01:35:23.494Z,100276.03
2023-04-05T01:38:01.148Z,100249.72
2023-04-05T01:40:32.012Z,100276.09
2023-04-05T01:43:03.241Z,100265.69
2023-04-05T01:45:33.518Z,100271.03
2023-04-05T01:48:02.809Z,100272.53
2023-04-05T01:50:31.807Z,100263.88
2023-04-05T01:53:00.857Z,100267.50
2023-04-05T01:55:29.950Z,100269.22
2023-04-05T01:57:59.233Z,100247.16
2023-04-05T02:00:29.269Z,100242.69
2023-04-05T02:03:02.188Z,100236.75
2023-04-05T02:05:32.222Z,100237.31
2023-04-05T02:08:01.282Z,100248.13
2023-04-05T02:10:30.369Z,100235.81
2023-04-05T02:13:02.940Z,100228.22
2023-04-05T02:15:35.554Z,100233.50
2023-04-05T02:18:08.126Z,100241.03
2023-04-05T02:20:37.749Z,100210.38
2023-04-05T02:23:07.724Z,100197.25
2023-04-05T02:25:37.387Z,100219.25
2023-04-05T02:28:11.836Z,100225.38
2023-04-05T02:30:41.683Z,100217.81
2023-04-05T02:33:14.432Z,100222.47
2023-04-05T02:35:43.621Z,100177.50
2023-04-05T02:38:13.079Z,100216.84
2023-04-05T02:40:47.283Z,100182.50
2023-04-05T02:43:16.555Z,100224.81
2023-04-05T02:45:47.109Z,100220.16
2023-04-05T02:48:21.587Z,100227.34
2023-04-05T02:50:51.700Z,100212.81
2023-04-05T02:53:22.509Z,100219.03
2023-04-05T02:56:00.221Z,100213.44
2023-04-05T02:58:30.600Z,100192.84
2023-04-05T03:01:01.811Z,100214.91
2023-04-05T03:03:35.716Z,100214.34
2023-04-05T03:06:10.478Z,100207.88
2023-04-05T03:08:49.922Z,100200.09
2023-04-05T03:11:24.105Z,100224.50
2023-04-05T03:13:57.763Z,100221.91
2023-04-05T03:16:46.834Z,100186.81
2023-04-05T03:19:27.410Z,100212.41
2023-04-05T03:22:03.138Z,100197.41
2023-04-05T03:24:35.969Z,100210.59
2023-04-05T03:28:24.973Z,100222.22
2023-04-05T03:30:33.549Z,100043.63
2023-04-05T03:33:13.933Z,100205.41
2023-04-05T03:35:51.049Z,100217.97
2023-04-05T03:38:23.158Z,100209.47
2023-04-05T03:41:06.997Z,100190.16
2023-04-05T03:43:39.420Z,100189.47
2023-04-05T03:46:10.703Z,100151.22
2023-04-05T03:48:40.612Z,100177.88
2023-04-05T03:51:11.127Z,100198.94
2023-04-05T03:53:40.943Z,100212.75
2023-04-05T03:56:15.821Z,100213.97
2023-04-05T03:58:48.659Z,100198.03
2023-04-05T04:01:19.912Z,100192.59
2023-04-05T04:03:48.997Z,100217.34
2023-04-05T04:06:19.805Z,100214.59
2023-04-05T04:08:49.233Z,100225.16
2023-04-05T04:11:18.336Z,100216.09
2023-04-05T04:13:47.634Z,100224.09
2023-04-05T04:16:35.514Z,100212.09
2023-04-05T04:19:24.248Z,100208.38
2023-04-05T04:22:40.810Z,100202.88
2023-04-05T04:25:31.584Z,100194.22
2023-04-05T04:28:08.114Z,100171.78
2023-04-05T04:30:58.222Z,100192.31
2023-04-05T04:33:38.497Z,100188.44
2023-04-05T04:36:37.163Z,100200.50
2023-04-05T04:39:45.081Z,100194.91
2023-04-05T04:42:39.176Z,100204.38
2023-04-05T04:45:20.811Z,100183.56
2023-04-05T04:48:10.635Z,100192.84
2023-04-05T04:51:00.314Z,100171.72
2023-04-05T04:53:36.335Z,100177.44
2023-04-05T04:56:09.949Z,100139.31
2023-04-05T04:58:41.481Z,100168.72
2023-04-05T05:01:12.072Z,100198.22
2023-04-05T05:03:41.471Z,100207.84
2023-04-05T05:06:13.217Z,100201.63
2023-04-05T05:08:42.263Z,100202.03
2023-04-05T05:11:12.696Z,100167.78
2023-04-05T05:13:45.228Z,100205.09
2023-04-05T05:16:22.727Z,100205.63
2023-04-05T05:18:52.722Z,100190.63
2023-04-05T05:24:10.190Z,100208.00
2023-04-05T05:26:42.943Z,100200.75
2023-04-05T05:29:12.222Z,100203.25
2023-04-05T05:31:45.256Z,100204.53
2023-04-05T05:34:16.087Z,100175.94
2023-04-05T05:36:52.550Z,100193.75
2023-04-05T05:39:22.042Z,100181.69
2023-04-05T05:41:53.710Z,100171.88
2023-04-05T05:44:22.925Z,100185.94
2023-04-05T05:46:52.046Z,100189.63
2023-04-05T05:49:21.981Z,100191.84
2023-04-05T05:51:52.769Z,100191.66
2023-04-05T05:54:22.359Z,100170.66
2023-04-05T05:56:52.853Z,100185.16
2023-04-05T05:59:22.074Z,100185.66
2023-04-05T06:01:52.321Z,100144.28
2023-04-05T06:04:22.130Z,100173.75
2023-04-05T06:06:51.713Z,100173.75
2023-04-05T06:09:23.978Z,100182.00
2023-04-05T06:11:57.216Z,100177.97
2023-04-05T06:14:36.473Z,100146.00
2023-04-05T06:17:06.637Z,100173.75
2023-04-05T06:19:36.095Z,100167.63
2023-04-05T06:22:05.443Z,100163.81
2023-04-05T06:24:38.872Z,100174.09
2023-04-05T06:27:11.306Z,100141.97
2023-04-05T06:29:46.295Z,100180.50
2023-04-05T06:32:15.866Z,100181.94
2023-04-05T06:34:49.114Z,100185.34
2023-04-05T06:37:19.290Z,100162.84
2023-04-05T06:39:50.880Z,100180.06
2023-04-05T06:42:22.547Z,100179.19
2023-04-05T06:44:59.211Z,100188.34
2023-04-05T06:47:28.676Z,100129.78
2023-04-05T06:50:06.224Z,100151.59
2023-04-05T06:52:36.227Z,100142.81
2023-04-05T06:55:07.986Z,100153.00
2023-04-05T06:57:40.185Z,100194.53
2023-04-05T07:00:12.802Z,100156.19
2023-04-05T07:02:42.143Z,100153.97
2023-04-05T07:05:11.685Z,100190.28
2023-04-05T07:07:48.802Z,100178.09
2023-04-05T07:10:18.787Z,100164.28
2023-04-05T07:12:51.757Z,100197.81
2023-04-05T07:15:23.345Z,100170.34
2023-04-05T07:17:58.638Z,100189.00
2023-04-05T07:20:27.774Z,100176.00
2023-04-05T07:22:58.779Z,100191.59
2023-04-05T07:25:30.492Z,100173.09
2023-04-05T07:28:04.337Z,100175.78
2023-04-05T07:30:38.019Z,100156.00
2023-04-05T07:33:09.036Z,100131.81
2023-04-05T07:35:38.197Z,100145.97
2023-04-05T07:38:08.785Z,100159.75
2023-04-05T07:40:38.750Z,100161.19
2023-04-05T07:43:12.110Z,100160.44
2023-04-05T07:45:41.506Z,100142.50
2023-04-05T07:48:11.416Z,100149.75
2023-04-05T07:50:41.399Z,100157.06
2023-04-05T07:53:10.896Z,100109.78
2023-04-05T07:55:42.276Z,100162.09
2023-04-05T07:58:16.425Z,100158.19
2023-04-05T08:00:45.665Z,100155.25
2023-04-05T08:03:16.240Z,100156.19
2023-04-05T08:05:46.260Z,100172.41
2023-04-05T08:08:15.613Z,100172.28
2023-04-05T08:10:45.133Z,100163.56
2023-04-05T08:13:18.635Z,100130.56
2023-04-05T08:15:49.080Z,100166.06
2023-04-05T08:18:19.318Z,100167.06
2023-04-05T08:20:54.764Z,100168.47
2023-04-05T08:23:27.700Z,100166.50
2023-04-05T08:25:57.130Z,100190.16
2023-04-05T08:28:28.132Z,100175.97
2023-04-05T08:30:57.817Z,100173.97
2023-04-05T08:33:31.236Z,100174.63
2023-04-05T08:36:05.828Z,100169.75
2023-04-05T08:38:35.478Z,100176.00
2023-04-05T08:41:16.469Z,100159.50
2023-04-05T08:43:56.436Z,100174.53
2023-04-05T08:46:26.226Z,100175.06
2023-04-05T08:48:56.417Z,100163.13
2023-04-05T08:51:27.829Z,100172.97
2023-04-05T08:53:57.981Z,100166.28
2023-04-05T08:56:32.555Z,100166.88
2023-04-05T08:59:05.966Z,100175.63
2023-04-05T09:01:43.595Z,100180.25
2023-04-05T09:04:18.142Z,100170.22
2023-04-05T09:06:48.672Z,100179.38
2023-04-05T09:09:22.539Z,100186.69
2023-04-05T09:11:52.201Z,100175.94
2023-04-05T09:14:23.237Z,100148.19
2023-04-05T09:16:53.298Z,100161.84
2023-04-05T09:19:22.341Z,100152.75
2023-04-05T09:22:01.852Z,100104.75
2023-04-05T09:24:37.025Z,100131.16
2023-04-05T09:27:08.573Z,100165.75
2023-04-05T09:29:40.631Z,100112.44
2023-04-05T09:32:13.885Z,100155.66
2023-04-05T09:34:44.563Z,100154.59
2023-04-05T09:37:22.698Z,100157.22
2023-04-05T09:40:04.015Z,100143.97
2023-04-05T09:42:44.919Z,100163.50
2023-04-05T09:45:16.572Z,100155.91
2023-04-05T09:47:58.219Z,100167.84
2023-04-05T09:50:29.283Z,100170.31
2023-04-05T09:53:09.724Z,100144.97
2023-04-05T09:55:40.269Z,100172.94
2023-04-05T09:58:13.985Z,100166.88
2023-04-05T10:00:59.925Z,100163.88
2023-04-05T10:03:32.437Z,100139.09
2023-04-05T10:06:02.049Z,100133.53
2023-04-05T10:08:34.528Z,100116.16
2023-04-05T10:11:10.556Z,100148.16
2023-04-05T10:13:41.331Z,100137.84
2023-04-05T10:16:20.664Z,100130.03
2023-04-05T10:19:09.145Z,100137.38
2023-04-05T10:21:45.106Z,100136.34
2023-04-05T10:24:27.627Z,100143.81
2023-04-05T10:27:06.217Z,100140.94
2023-04-05T10:29:45.502Z,100138.03
2023-04-05T10:32:26.205Z,100142.97
2023-04-05T10:35:02.485Z,100142.13
2023-04-05T10:37:56.124Z,100122.94
2023-04-05T10:40:31.136Z,100133.88
2023-04-05T10:43:01.380Z,100128.09
2023-04-05T10:45:35.649Z,100147.09
2023-04-05T10:48:17.321Z,100122.56
2023-04-05T10:50:50.116Z,100141.63
2023-04-05T10:53:38.872Z,100130.81
2023-04-05T10:56:09.495Z,100121.22
2023-04-05T10:58:45.441Z,100125.22
2023-04-05T11:01:18.969Z,100125.72
2023-04-05T11:03:54.002Z,100143.69
2023-04-05T11:06:35.992Z,100127.53
2023-04-05T11:09:13.536Z,100145.69
2023-04-05T11:11:44.276Z,100151.75
2023-04-05T11:14:25.868Z,100128.16
2023-04-05T11:16:56.974Z,100149.22
2023-04-05T11:19:53.511Z,100157.34
2023-04-05T11:22:36.563Z,100137.59
2023-04-05T11:25:07.043Z,100153.66
2023-04-05T11:27:42.022Z,100149.72
2023-04-05T11:30:13.987Z,100143.72
2023-04-05T11:32:45.036Z,100121.81
2023-04-05T11:35:17.793Z,100125.91
2023-04-05T11:37:58.931Z,100144.16
2023-04-05T11:40:29.951Z,100120.66
2023-04-05T11:43:06.006Z,100141.75
2023-04-05T11:45:36.276Z,100138.81
2023-04-05T11:48:10.840Z,100136.13
2023-04-05T11:50:43.028Z,100126.47
2023-04-05T11:53:13.594Z,100102.50
2023-04-05T11:55:44.360Z,100141.22
2023-04-05T11:58:16.228Z,100129.09
2023-04-05T12:00:47.222Z,100142.41
2023-04-05T12:03:17.308Z,100128.16
2023-04-05T12:05:49.884Z,100125.97
2023-04-05T12:08:21.647Z,100141.34
2023-04-05T12:10:57.706Z,100145.41
2023-04-05T12:13:28.823Z,100128.88
2023-04-05T12:16:00.719Z,100128.16
2023-04-05T12:18:32.226Z,100100.91
2023-04-05T12:21:06.421Z,100119.03
2023-04-05T12:23:37.466Z,100097.84
2023-04-05T12:26:09.816Z,100114.81
2023-04-05T12:28:51.874Z,100081.13
2023-04-05T12:31:39.851Z,100098.22
2023-04-05T12:34:10.165Z,100100.25
2023-04-05T12:36:45.787Z,100087.63
2023-04-05T12:39:18.550Z,100098.34
2023-04-05T12:41:58.514Z,100094.50
2023-04-05T12:44:31.728Z,100091.34
2023-04-05T12:47:05.376Z,100083.47
2023-04-05T12:49:38.755Z,100091.50
2023-04-05T12:52:09.675Z,100093.25
2023-04-05T12:54:40.611Z,100078.50
2023-04-05T12:57:13.094Z,100095.28
2023-04-05T12:59:42.448Z,100090.19
2023-04-05T13:02:11.691Z,100097.03
2023-04-05T13:04:41.551Z,100089.13
2023-04-05T13:07:13.846Z,100011.34
2023-04-05T13:09:43.573Z,100086.84
2023-04-05T13:12:13.085Z,100086.03
2023-04-05T13:14:42.654Z,100085.75
2023-04-05T13:17:12.168Z,100099.66
2023-04-05T13:19:41.347Z,100086.44
2023-04-05T13:22:12.121Z,100089.25
2023-04-05T13:24:41.272Z,99998.03
2023-04-05T13:27:10.461Z,100083.69
2023-04-05T13:29:39.901Z,100085.81
2023-04-05T13:32:09.114Z,100094.69
2023-04-05T13:34:38.282Z,100068.88
2023-04-05T13:37:07.931Z,100061.53
2023-04-05T13:39:38.416Z,100068.13
2023-04-05T13:42:07.647Z,100072.34
2023-04-05T13:44:38.411Z,100064.59
2023-04-05T13:47:07.746Z,100065.47
2023-04-05T13:49:37.183Z,100082.56
2023-04-05T13:52:06.892Z,100072.00
2023-04-05T13:54:36.096Z,100068.78
2023-04-05T13:57:06.823Z,100064.28
2023-04-05T13:59:35.988Z,100045.34
2023-04-05T14:02:05.521Z,100079.22
2023-04-05T14:04:34.786Z,100054.59
2023-04-05T14:07:04.000Z,100073.09
2023-04-05T14:09:33.376Z,100078.59
2023-04-05T14:12:04.580Z,100065.38
2023-04-05T14:14:35.530Z,100030.78
2023-04-05T14:17:09.120Z,100030.94
2023-04-05T14:19:38.979Z,100065.81
2023-04-05T14:22:08.235Z,100073.09
2023-04-05T14:24:37.300Z,100057.81
2023-04-05T14:27:06.487Z,100073.56
2023-04-05T14:29:37.247Z,100057.84
2023-04-05T14:32:07.083Z,100008.47
2023-04-05T14:34:36.602Z,100073.78
2023-04-05T14:37:06.761Z,100067.44
2023-04-05T14:39:36.042Z,100082.78
2023-04-05T14:42:05.714Z,100069.75
2023-04-05T14:44:36.403Z,100065.88
2023-04-05T14:47:05.979Z,100068.59
2023-04-05T14:49:34.993Z,100067.91
2023-04-05T14:52:05.403Z,100066.03
2023-04-05T14:54:36.224Z,100062.34
2023-04-05T14:57:12.179Z,100060.03
2023-04-05T14:59:45.188Z,100052.88
2023-04-05T15:02:14.780Z,100063.22
2023-04-05T15:04:43.958Z,100052.22
2023-04-05T15:07:13.252Z,100054.34
2023-04-05T15:09:52.405Z,100038.69
2023-04-05T15:12:22.616Z,100073.38
2023-04-05T15:14:55.866Z,100038.84
2023-04-05T15:17:28.801Z,100092.09
2023-04-05T15:19:58.028Z,100080.53
2023-04-05T15:22:30.016Z,100104.47
2023-04-05T15:25:02.560Z,100048.41
2023-04-05T15:27:51.229Z,100083.47
2023-04-05T15:30:22.570Z,100059.50
2023-04-05T15:32:56.845Z,99957.16
2023-04-05T15:35:28.369Z,100069.59
2023-04-05T15:37:58.871Z,100041.81
2023-04-05T15:40:31.531Z,100065.00
2023-04-05T15:43:01.456Z,99896.88
2023-04-05T15:45:32.782Z,100042.28
2023-04-05T15:48:04.978Z,100068.78
2023-04-05T15:50:38.244Z,100073.25
2023-04-05T15:53:11.355Z,100068.06
2023-04-05T15:55:41.261Z,100070.06
2023-04-05T15:58:11.172Z,100007.84
2023-04-05T16:00:42.847Z,100011.53
2023-04-05T16:03:12.559Z,99910.59
2023-04-05T16:05:42.630Z,100004.06
2023-04-05T16:08:15.199Z,99888.47
2023-04-05T16:10:45.068Z,100077.00
2023-04-05T16:13:17.681Z,100078.94
2023-04-05T16:15:49.082Z,100048.22
2023-04-05T16:18:21.319Z,100065.72
2023-04-05T16:20:51.689Z,100081.38
2023-04-05T16:23:22.448Z,100082.03
2023-04-05T16:25:52.305Z,100078.44
2023-04-05T16:28:21.748Z,100069.75
2023-04-05T16:30:54.370Z,100072.13
2023-04-05T16:33:23.824Z,100066.44
2023-04-05T16:35:53.476Z,100076.09
2023-04-05T16:38:22.721Z,100051.41
2023-04-05T16:40:52.537Z,100061.44
2023-04-05T16:43:21.968Z,100055.13
2023-04-05T16:45:52.847Z,100064.53
2023-04-05T16:48:22.793Z,100063.03
2023-04-05T16:50:52.292Z,100070.44
2023-04-05T16:53:21.376Z,100074.19
2023-04-05T16:55:50.997Z,100077.03
2023-04-05T16:58:20.296Z,100079.22
2023-04-05T17:00:51.358Z,100058.06
2023-04-05T17:03:22.901Z,100070.88
2023-04-05T17:05:52.601Z,100089.34
2023-04-05T17:08:22.191Z,100087.22
2023-04-05T17:10:52.262Z,100073.41
2023-04-05T17:13:22.088Z,100063.44
2023-04-05T17:15:52.474Z,100062.22
2023-04-05T17:18:23.091Z,100092.59
2023-04-05T17:20:52.424Z,100103.47
2023-04-05T17:23:21.731Z,100097.22
2023-04-05T17:25:51.363Z,100097.50
2023-04-05T17:28:28.790Z,100070.44
2023-04-05T17:30:58.931Z,100100.13
2023-04-05T17:33:30.225Z,100099.94
2023-04-05T17:36:04.769Z,100106.81
2023-04-05T17:38:35.192Z,100100.41
2023-04-05T17:41:04.403Z,100093.41
2023-04-05T17:43:35.029Z,100094.63
2023-04-05T17:46:10.796Z,100098.91
2023-04-05T17:48:41.627Z,100100.19
2023-04-05T17:51:42.742Z,100088.69
2023-04-05T17:54:44.546Z,100087.03
2023-04-05T17:57:15.706Z,100100.19
2023-04-05T17:59:45.940Z,100092.69
2023-04-05T18:02:20.956Z,100072.00
2023-04-05T18:04:51.362Z,100104.34
2023-04-05T18:07:20.741Z,100098.00
2023-04-05T18:09:50.346Z,100077.84
2023-04-05T18:12:19.754Z,100090.59
2023-04-05T18:14:49.275Z,100094.94
2023-04-05T18:17:20.279Z,100067.53
2023-04-05T18:19:51.094Z,100091.53
2023-04-05T18:22:20.541Z,100098.75
2023-04-05T18:24:50.058Z,100087.78
2023-04-05T18:27:19.121Z,100062.88
2023-04-05T18:29:49.166Z,100075.19
2023-04-05T18:32:20.378Z,100074.78
2023-04-05T18:34:51.863Z,100079.88
2023-04-05T18:37:21.438Z,100087.09
2023-04-05T18:39:50.628Z,100077.75
2023-04-05T18:42:20.717Z,100080.94
2023-04-05T18:44:53.614Z,100053.78
2023-04-05T18:47:24.348Z,100052.50
2023-04-05T18:49:55.821Z,100068.41
2023-04-05T18:52:27.442Z,100054.19
2023-04-05T18:54:58.756Z,100061.78
2023-04-05T18:57:28.079Z,100052.16
2023-04-05T19:00:00.939Z,100064.59
2023-04-05T19:02:31.537Z,100059.06
2023-04-05T19:05:02.500Z,100058.84
2023-04-05T19:07:32.081Z,100050.38
2023-04-05T19:10:02.582Z,100042.94
2023-04-05T19:12:45.075Z,100028.72
2023-04-05T19:15:14.668Z,100048.03
2023-04-05T19:17:44.747Z,100030.44
2023-04-05T19:20:15.903Z,100007.50
2023-04-05T19:22:46.314Z,100033.19
2023-04-05T19:25:15.532Z,100037.84
2023-04-05T19:27:47.248Z,100039.44
2023-04-05T19:30:20.073Z,100038.38
2023-04-05T19:32:49.984Z,100021.63
2023-04-05T19:35:21.787Z,100034.69
2023-04-05T19:37:51.637Z,100031.69
2023-04-05T19:40:23.759Z,100025.09
2023-04-05T19:42:52.799Z,100026.94
2023-04-05T19:45:33.313Z,99993.50
2023-04-05T19:48:07.307Z,99989.47
2023-04-05T19:50:48.236Z,99982.97
2023-04-05T19:53:51.190Z,100000.06
2023-04-05T19:56:22.894Z,99967.38
2023-04-05T19:58:57.787Z,100007.28
2023-04-05T20:01:35.791Z,99998.06
2023-04-05T20:04:33.212Z,99969.63
2023-04-05T20:07:04.661Z,100011.53
2023-04-05T20:09:34.908Z,99920.09
2023-04-05T20:12:05.853Z,99917.31
2023-04-05T20:14:42.602Z,99979.28
2023-04-05T20:17:13.560Z,99996.00
2023-04-05T20:20:00.609Z,99992.44
2023-04-05T20:22:33.804Z,99968.44
2023-04-05T20:25:28.396Z,99995.19
2023-04-05T20:27:57.955Z,99979.28
2023-04-05T20:30:27.604Z,99985.00
2023-04-05T20:32:57.731Z,99980.69
2023-04-05T20:35:32.328Z,99949.94
2023-04-05T20:38:02.862Z,99976.81
2023-04-05T20:40:31.921Z,99962.81
2023-04-05T20:43:01.246Z,99965.19
2023-04-05T20:45:30.689Z,99966.16
2023-04-05T20:48:01.167Z,99960.59
2023-04-05T20:50:30.940Z,99953.63
2023-04-05T20:53:06.317Z,99945.91
2023-04-05T20:55:35.814Z,99941.88
2023-04-05T20:58:05.218Z,99896.41
2023-04-05T21:00:41.494Z,99922.94
2023-04-05T21:03:13.666Z,99936.06
2023-04-05T21:05:42.765Z,99927.03
2023-04-05T21:08:13.640Z,99923.19
2023-04-05T21:10:42.807Z,99907.75
2023-04-05T21:13:12.910Z,99920.69
2023-04-05T21:15:42.489Z,99910.16
2023-04-05T21:18:11.758Z,99925.53
2023-04-05T21:20:41.374Z,99928.31
2023-04-05T21:23:12.303Z,99917.72
2023-04-05T21:25:42.004Z,99917.28
2023-04-05T21:28:11.397Z,99924.31
2023-04-05T21:30:40.705Z,99910.50
2023-04-05T21:33:10.086Z,99920.31
2023-04-05T21:35:39.366Z,99902.16
2023-04-05T21:38:08.753Z,99915.84
2023-04-05T21:40:39.795Z,99900.44
2023-04-05T21:43:08.895Z,99886.50
2023-04-05T21:45:38.249Z,99900.59
2023-04-05T21:48:07.914Z,99917.00
2023-04-05T21:50:37.475Z,99916.19
2023-04-05T21:53:07.470Z,99899.88
2023-04-05T21:55:38.140Z,99888.75
2023-04-05T21:58:07.820Z,99905.88
2023-04-05T22:00:37.896Z,99907.38
2023-04-05T22:03:07.136Z,99875.84
2023-04-05T22:05:41.197Z,99905.84
2023-04-05T22:08:11.440Z,99887.22
2023-04-05T22:10:43.894Z,99885.28
2023-04-05T22:13:13.123Z,99887.75
2023-04-05T22:15:44.205Z,99877.59
2023-04-05T22:18:13.956Z,99876.38
2023-04-05T22:20:43.534Z,99849.44
2023-04-05T22:23:12.494Z,99886.91
2023-04-05T22:25:42.950Z,99873.81
2023-04-05T22:28:11.945Z,99846.22
2023-04-05T22:30:44.320Z,99865.28
2023-04-05T22:33:14.145Z,99866.72
2023-04-05T22:35:43.851Z,99855.66
2023-04-05T22:38:13.300Z,99842.38
2023-04-05T22:40:45.424Z,99843.84
2023-04-05T22:43:14.605Z,99863.34
2023-04-05T22:45:43.805Z,99854.03
2023-04-05T22:48:13.050Z,99846.06
2023-04-05T22:50:42.408Z,99860.63
2023-04-05T22:53:15.763Z,99859.53
2023-04-05T22:55:48.974Z,99856.72
2023-04-05T22:58:19.723Z,99833.06
2023-04-05T23:00:49.168Z,99851.44
2023-04-05T23:03:18.338Z,99846.09
2023-04-05T23:05:48.550Z,99851.69
2023-04-05T23:08:17.818Z,99832.34
2023-04-05T23:10:48.938Z,99846.84
2023-04-05T23:13:18.131Z,99804.06
2023-04-05T23:15:49.955Z,99851.06
2023-04-05T23:18:22.765Z,99843.19
2023-04-05T23:20:52.398Z,99834.88
2023-04-05T23:23:25.098Z,99833.19
2023-04-05T23:25:55.499Z,99832.31
2023-04-05T23:28:24.514Z,99833.28
2023-04-05T23:30:53.663Z,99824.13
2023-04-05T23:33:23.009Z,99836.53
2023-04-05T23:35:52.160Z,99838.59
2023-04-05T23:38:21.445Z,99837.41
2023-04-05T23:40:50.943Z,99834.97
2023-04-05T23:43:23.938Z,99834.97
2023-04-05T23:45:53.164Z,99831.84
2023-04-05T23:48:22.515Z,99841.75
2023-04-05T23:50:51.627Z,99832.31
2023-04-05T23:53:21.060Z,99826.75
2023-04-05T23:55:53.318Z,99827.72
2023-04-05T23:58:24.213Z,99816.75
